Latest Weather Observations for Lord Howe Island

IDN60801

Issued at 2:04 am EDT Friday 29 January 2021 (issued every 10 minutes, with the page automatically refreshed every 10 minutes)

About weather observations | Map of weather stations | Latest weather observations for NSW | Other Formats
Station Details ID: 200839 Name: LORD HOWE ISLAND AERO Lat: -31.54 Lon: 159.08 Height: 5.0 m
Data from the previous 72 hours. | See also: Recent months at Lord Howe Island

Observations are collected in the New South Wales time zone (Eastern Standard Time) which includes daylight savings in the summer period. Therefore 'Rain since 9am' totals and other values are based on the New South Wales time zone, which may differ from local time.

Date/Time
EDT
Temp
°C
App
Temp
°C
Dew
Point
°C
Rel
Hum
%
Delta-T
°C
Wind Press
QNH
hPa
Press
MSL
hPa
Rain since
9am
mm
Dir  Spd
km/h
Gust
km/h
Spd
kts
Gust
kts
29/02:00am 21.3 18.3 21.3 100 0.0 E 39 57 21 31 1014.8 1014.8 3.6
29/01:30am 21.6 19.5 21.6 100 0.0 E 35 54 19 29 1014.8 1014.8 3.6
29/01:03am 21.6 18.7 21.6 100 0.0 E 39 57 21 31 1014.8 1014.8 3.6
29/01:00am 21.4 18.4 21.4 100 0.0 E 39 54 21 29 1014.8 1014.8 3.6
29/12:30am 21.4 18.0 21.4 100 0.0 E 41 59 22 32 1015.1 1015.1 3.6
29/12:28am 21.4 18.0 21.4 100 0.0 E 41 59 22 32 1015.2 1015.2 3.4
29/12:06am 21.6 19.1 21.6 100 0.0 E 37 52 20 28 1015.3 1015.3 3.2
29/12:00am 21.9 19.9 21.9 100 0.0 E 35 54 19 29 1015.3 1015.3 3.2
 
Date/Time
EDT
Temp
°C
App
Temp
°C
Dew
Point
°C
Rel
Hum
%
Delta-T
°C
Wind Press
QNH
hPa
Press
MSL
hPa
Rain since
9am
mm
Dir  Spd
km/h
Gust
km/h
Spd
kts
Gust
kts
28/11:45pm 21.9 20.9 21.9 100 0.0 ESE 30 48 16 26 1015.4 1015.4 3.2
28/11:38pm 21.9 20.5 21.9 100 0.0 E 32 48 17 26 1015.3 1015.3 3.2
28/11:30pm 21.9 20.3 21.9 100 0.0 E 33 50 18 27 1015.4 1015.4 3.2
28/11:23pm 21.9 20.3 21.9 100 0.0 E 33 52 18 28 1015.4 1015.4 3.2
28/11:16pm 22.0 19.7 22.0 100 0.0 E 37 54 20 29 1015.4 1015.4 2.8
28/11:14pm 22.0 19.7 22.0 100 0.0 E 37 54 20 29 1015.4 1015.4 2.8
28/11:10pm 22.0 20.5 22.0 100 0.0 E 33 54 18 29 1015.5 1015.5 2.8
28/11:00pm 22.0 21.8 22.0 100 0.0 ESE 26 43 14 23 1015.5 1015.5 2.8
28/10:39pm 21.7 19.6 21.7 100 0.0 E 35 61 19 33 1015.7 1015.7 2.6
28/10:30pm 21.7 19.6 21.7 100 0.0 E 35 50 19 27 1015.7 1015.7 2.6
28/10:00pm 21.7 19.2 21.7 100 0.0 E 37 59 20 32 1015.8 1015.8 1.0
28/09:55pm 21.8 19.0 21.8 100 0.0 E 39 59 21 32 1015.6 1015.6 1.0
28/09:53pm 21.9 19.5 21.9 100 0.0 E 37 54 20 29 1015.7 1015.7 1.0
28/09:50pm 22.3 20.5 22.3 100 0.0 E 35 50 19 27 1015.6 1015.6 0.8
28/09:30pm 22.1 21.6 22.1 100 0.0 E 28 46 15 25 1015.7 1015.7 0.6
28/09:24pm 22.2 21.0 22.2 100 0.0 E 32 50 17 27 1015.7 1015.7 0.6
28/09:00pm 22.3 22.2 22.3 100 0.0 E 26 37 14 20 1015.4 1015.4 0.2
28/08:59pm 22.4 22.3 22.2 99 0.1 E 26 37 14 20 1015.4 1015.4 0.2
28/08:30pm 22.7 23.8 22.0 96 0.5 ESE 19 33 10 18 1015.3 1015.3 0.2
28/08:00pm 23.4 24.3 22.0 92 0.9 E 20 33 11 18 1014.9 1014.9 0.2
28/07:30pm 23.6 24.1 21.1 86 1.6 E 20 30 11 16 1014.7 1014.7 0.2
28/07:00pm 23.6 24.3 21.5 88 1.4 E 20 32 11 17 1014.6 1014.6 0.2
28/06:30pm 23.6 23.7 21.1 86 1.6 E 22 33 12 18 1014.2 1014.2 0.2
28/06:00pm 23.8 24.4 21.3 86 1.6 E 20 30 11 16 1013.9 1013.9 0.2
28/05:30pm 23.7 23.1 20.6 83 2.0 E 24 35 13 19 1013.8 1013.8 0.2
28/05:00pm 24.3 24.6 21.6 85 1.8 E 22 33 12 18 1013.8 1013.8 0.2
28/04:30pm 25.1 25.5 21.8 82 2.2 E 22 30 12 16 1013.9 1013.9 0.2
28/04:00pm 24.4 24.7 20.7 80 2.4 E 20 32 11 17 1014.1 1014.1 0.2
28/03:30pm 24.5 26.3 21.2 82 2.2 ESE 13 24 7 13 1014.3 1014.3 0.2
28/03:00pm 25.3 25.9 21.4 79 2.6 E 20 26 11 14 1014.5 1014.5 0.2
28/02:30pm 25.8 27.2 21.9 79 2.6 ESE 17 26 9 14 1015.0 1015.0 0.2
28/02:00pm 25.2 26.0 21.3 79 2.6 E 19 30 10 16 1015.1 1015.1 0.2
28/01:30pm 25.4 26.7 22.7 85 1.8 E 20 30 11 16 1015.3 1015.3 0.2
28/01:00pm 25.8 26.9 22.3 81 2.3 E 20 24 11 13 1015.5 1015.5 0.2
28/12:30pm 25.6 26.1 21.9 80 2.5 E 22 28 12 15 1015.7 1015.7 0.2
28/12:00pm 25.7 26.8 22.4 82 2.2 E 20 26 11 14 1015.8 1015.8 0.2
28/11:30am 25.6 26.6 22.1 81 2.3 E 20 26 11 14 1015.7 1015.7 0.0
28/11:00am 25.5 27.3 22.6 84 2.0 E 17 22 9 12 1015.8 1015.8 0.0
28/10:30am 25.4 27.0 22.9 86 1.7 E 19 24 10 13 1015.9 1015.9 0.0
28/10:00am 25.0 26.1 22.3 85 1.8 E 20 28 11 15 1015.9 1015.9 0.0
28/09:30am 25.0 26.1 22.3 85 1.8 E 20 28 11 15 1015.7 1015.7 0.0
28/09:00am 24.5 25.4 22.0 86 1.7 E 20 28 11 15 1015.7 1015.7 0.0
28/08:30am 24.8 25.8 22.1 85 1.8 E 20 24 11 13 1015.5 1015.5 0.0
28/08:00am 23.8 24.8 22.1 90 1.1 E 20 26 11 14 1015.2 1015.2 0.0
28/07:30am 24.0 25.1 22.4 91 1.1 E 20 26 11 14 1014.9 1014.9 0.0
28/07:12am 23.8 25.1 22.4 92 0.9 E 19 26 10 14 1014.7 1014.7 0.0
28/07:00am 23.6 24.7 22.4 93 0.8 E 20 26 11 14 1014.5 1014.5 0.0
28/06:34am 23.1 26.2 22.8 98 0.2 ESE 11 20 6 11 1014.3 1014.3 0.0
28/06:30am 22.9 25.9 22.6 98 0.2 ESE 11 15 6 8 1014.3 1014.3 0.0
28/06:08am 22.9 25.5 22.6 98 0.2 ESE 13 19 7 10 1014.0 1014.0 0.0
28/06:00am 22.6 26.2 22.4 99 0.1 SE 7 11 4 6 1014.0 1014.0 0.0
28/05:32am 23.0 26.4 22.7 98 0.2 ESE 9 17 5 9 1013.9 1013.9 0.0
28/05:30am 23.0 26.3 22.5 97 0.3 ESE 9 17 5 9 1013.9 1013.9 0.0
28/05:19am 23.0 25.4 22.2 95 0.5 E 13 19 7 10 1013.8 1013.8 0.0
28/05:03am 22.9 25.6 22.2 96 0.5 E 11 15 6 8 1013.8 1013.8 0.0
28/05:00am 23.1 26.0 22.4 96 0.5 E 11 15 6 8 1013.8 1013.8 0.0
28/04:30am 23.1 25.4 22.1 94 0.7 ENE 13 17 7 9 1013.6 1013.6 0.0
28/04:15am 22.7 25.4 22.2 97 0.3 E 11 15 6 8 1013.5 1013.5 0.0
28/04:00am 22.7 25.3 22.0 96 0.5 ESE 11 15 6 8 1013.6 1013.6 0.0
28/03:30am 22.8 25.4 22.6 99 0.1 E 13 19 7 10 1013.5 1013.5 0.0
28/03:00am 22.9 25.1 22.6 98 0.2 E 15 22 8 12 1013.5 1013.5 0.0
28/02:55am 22.7 24.8 22.5 99 0.1 E 15 19 8 10 1013.5 1013.5 0.0
28/02:30am 22.7 24.8 22.4 98 0.2 E 15 20 8 11 1013.6 1013.6 0.0
28/02:00am 22.6 25.6 21.9 96 0.5 ESE 9 13 5 7 1013.8 1013.8 0.0
28/01:30am 23.0 25.0 22.2 95 0.5 E 15 20 8 11 1014.0 1014.0 0.0
28/01:00am 23.2 24.2 22.2 94 0.7 E 20 26 11 14 1014.1 1014.1 0.0
28/12:30am 23.2 24.5 21.6 91 1.1 ENE 17 22 9 12 1014.2 1014.2 0.0
28/12:18am 23.3 24.7 21.9 92 0.9 ENE 17 22 9 12 1014.3 1014.3 0.0
28/12:00am 23.4 24.5 22.0 92 0.9 ENE 19 26 10 14 1014.4 1014.4 0.0
 
Date/Time
EDT
Temp
°C
App
Temp
°C
Dew
Point
°C
Rel
Hum
%
Delta-T
°C
Wind Press
QNH
hPa
Press
MSL
hPa
Rain since
9am
mm
Dir  Spd
km/h
Gust
km/h
Spd
kts
Gust
kts
27/11:37pm 23.6 26.0 22.9 96 0.5 E 15 22 8 12 1014.5 1014.5 0.0
27/11:30pm 23.3 26.6 22.5 95 0.5 ESE 9 19 5 10 1014.5 1014.5 0.0
27/11:00pm 23.3 25.5 21.9 92 0.9 E 13 20 7 11 1014.6 1014.6 0.0
27/10:55pm 23.2 25.0 21.8 92 0.9 E 15 20 8 11 1014.7 1014.7 0.0
27/10:31pm 23.3 26.5 22.3 94 0.7 ESE 9 15 5 8 1014.8 1014.8 0.0
27/10:30pm 23.3 26.5 22.3 94 0.7 ESE 9 15 5 8 1014.8 1014.8 0.0
27/10:00pm 23.2 26.1 21.8 92 0.9 E 9 19 5 10 1014.8 1014.8 0.0
27/09:30pm 23.3 25.4 21.7 91 1.1 E 13 17 7 9 1014.7 1014.7 0.0
27/09:00pm 23.4 25.1 21.7 90 1.1 E 15 19 8 10 1014.6 1014.6 0.0
27/08:30pm 23.6 24.8 21.5 88 1.4 ENE 17 20 9 11 1014.4 1014.4 0.0
27/08:00pm 23.7 25.6 21.4 87 1.5 E 13 17 7 9 1014.1 1014.1 0.0
27/07:30pm 23.9 25.6 21.0 84 1.9 E 13 17 7 9 1013.8 1013.8 0.0
27/07:00pm 24.1 25.6 21.2 84 1.9 ENE 15 19 8 10 1013.4 1013.4 0.0
27/06:30pm 24.8 26.7 21.3 81 2.3 ENE 13 19 7 10 1013.4 1013.4 0.0
27/06:00pm 25.1 26.6 21.2 79 2.6 ENE 15 19 8 10 1013.0 1013.0 0.0
27/05:30pm 25.3 27.0 21.6 80 2.5 ENE 15 19 8 10 1012.7 1012.7 0.0
27/05:00pm 25.9 27.3 21.8 78 2.7 ENE 17 19 9 10 1012.5 1012.5 0.0
27/04:40pm 25.8 27.5 22.3 81 2.3 ENE 17 22 9 12 1012.3 1012.3 0.0
27/04:30pm 25.2 26.2 21.7 81 2.3 ENE 19 24 10 13 1012.2 1012.2 0.0
27/04:11pm 25.8 26.7 21.9 79 2.6 ENE 20 24 11 13 1012.3 1012.3 0.0
27/04:00pm 25.7 26.7 22.2 81 2.3 ENE 20 26 11 14 1012.2 1012.2 0.0
27/03:30pm 25.9 26.8 22.0 79 2.6 ENE 20 26 11 14 1012.4 1012.4 0.0
27/03:00pm 26.4 27.6 22.5 79 2.6 ENE 20 24 11 13 1012.6 1012.6 0.0
27/02:30pm 26.4 27.7 22.7 80 2.5 ENE 20 24 11 13 1012.4 1012.4 0.0
27/02:00pm 26.2 27.2 22.1 78 2.7 ENE 20 24 11 13 1012.5 1012.5 0.0
27/01:30pm 26.1 27.1 21.7 77 2.9 ENE 19 24 10 13 1012.6 1012.6 0.0
27/01:00pm 26.6 28.1 22.7 79 2.6 NE 19 24 10 13 1012.8 1012.8 0.0
27/12:30pm 26.5 27.3 21.7 75 3.2 NE 20 24 11 13 1012.9 1012.9 0.0
27/12:00pm 27.1 28.7 23.3 80 2.6 NE 20 26 11 14 1013.1 1013.1 0.0
27/11:30am 26.0 26.6 22.1 79 2.6 NE 22 28 12 15 1013.2 1013.2 0.0
27/11:00am 26.8 28.2 22.6 78 2.8 NE 19 24 10 13 1013.3 1013.3 0.0
27/10:30am 26.4 27.5 22.3 78 2.8 NE 20 24 11 13 1013.2 1013.2 0.0
27/10:00am 26.3 27.0 22.2 78 2.8 NE 22 26 12 14 1013.2 1013.2 0.0
27/09:30am 25.6 26.8 22.1 81 2.3 NE 19 22 10 12 1013.0 1013.0 0.0
27/09:00am 25.0 25.4 21.7 82 2.2 NE 22 26 12 14 1012.9 1012.9 0.0
27/08:30am 24.6 25.1 21.1 81 2.3 NE 20 26 11 14 1013.0 1013.0 0.0
27/08:00am 24.7 24.7 21.0 80 2.4 NE 22 26 12 14 1012.8 1012.8 0.0
27/07:30am 24.7 24.6 21.4 82 2.2 NE 24 30 13 16 1012.6 1012.6 0.0
27/07:00am 24.5 25.2 21.2 82 2.2 NE 19 24 10 13 1012.4 1012.4 0.0
27/06:30am 23.9 25.0 21.2 85 1.8 NE 17 20 9 11 1011.9 1011.9 0.0
27/06:00am 23.3 24.8 21.2 88 1.4 NE 15 19 8 10 1011.6 1011.6 0.0
27/05:30am 23.4 24.4 21.1 87 1.5 NNE 17 22 9 12 1011.5 1011.5 0.0
27/05:00am 23.3 24.1 20.6 85 1.8 NE 17 24 9 13 1011.2 1011.2 0.0
27/04:30am 23.4 22.8 20.5 84 1.9 NNE 24 30 13 16 1011.1 1011.1 0.0
27/04:00am 23.2 22.7 20.7 86 1.6 NE 24 30 13 16 1010.9 1010.9 0.0
27/03:30am 23.3 22.7 20.6 85 1.8 NNE 24 33 13 18 1010.8 1010.8 0.0
27/03:00am 23.3 23.3 21.6 90 1.1 NE 24 32 13 17 1011.0 1011.0 0.0
27/02:30am 23.4 23.0 21.7 90 1.1 NE 26 33 14 18 1011.1 1011.1 0.0
27/02:00am 23.4 22.4 21.3 88 1.4 NE 28 32 15 17 1011.3 1011.3 0.0
27/01:50am 23.6 22.8 21.7 89 1.3 NE 28 33 15 18 1011.4 1011.4 0.0
27/01:30am 23.7 23.9 22.0 90 1.1 NE 24 30 13 16 1011.6 1011.6 0.0
27/01:00am 23.6 23.9 21.5 88 1.4 NE 22 26 12 14 1011.7 1011.7 0.0
27/12:53am 23.5 23.9 21.8 90 1.1 NE 22 28 12 15 1011.8 1011.8 0.0
27/12:30am 23.5 23.7 21.4 88 1.4 NE 22 28 12 15 1011.8 1011.8 0.0
27/12:00am 23.5 23.5 21.6 89 1.3 NE 24 30 13 16 1012.0 1012.0 0.0
 
Date/Time
EDT
Temp
°C
App
Temp
°C
Dew
Point
°C
Rel
Hum
%
Delta-T
°C
Wind Press
QNH
hPa
Press
MSL
hPa
Rain since
9am
mm
Dir  Spd
km/h
Gust
km/h
Spd
kts
Gust
kts
26/11:30pm 23.4 23.3 21.5 89 1.3 NE 24 30 13 16 1012.1 1012.1 0.0
26/11:00pm 23.5 23.1 21.0 86 1.6 NNE 24 30 13 16 1012.3 1012.3 0.0
26/10:30pm 23.7 23.9 21.4 87 1.5 NE 22 30 12 16 1012.4 1012.4 0.0
26/10:00pm 23.7 23.9 21.4 87 1.5 NE 22 28 12 15 1012.4 1012.4 0.0
26/09:30pm 23.7 23.5 21.2 86 1.6 NE 24 32 13 17 1012.4 1012.4 0.0
26/09:00pm 23.6 23.3 21.1 86 1.6 NE 24 32 13 17 1012.2 1012.2 0.0
26/08:30pm 23.6 23.0 21.3 87 1.5 NE 26 33 14 18 1011.8 1011.8 0.0
26/08:00pm 23.5 22.2 20.6 84 1.9 NE 28 35 15 19 1011.3 1011.3 0.0
26/07:30pm 23.6 22.5 20.3 82 2.1 NE 26 33 14 18 1011.2 1011.2 0.0
26/07:00pm 23.8 22.3 20.3 81 2.3 NE 28 33 15 18 1011.1 1011.1 0.0
26/06:30pm 24.3 23.0 20.6 80 2.4 NE 28 35 15 19 1010.9 1010.9 0.0
26/06:00pm 24.6 22.5 19.7 74 3.2 NE 30 35 16 19 1010.7 1010.7 0.0
26/05:30pm 24.5 22.7 20.4 78 2.7 NE 30 35 16 19 1010.6 1010.6 0.0
26/05:00pm 25.5 24.4 21.0 76 3.0 NE 28 35 15 19 1010.3 1010.3 0.0
26/04:30pm 25.5 24.0 21.0 76 3.0 NE 30 37 16 20 1010.3 1010.3 0.0
26/04:00pm 24.9 22.9 20.8 78 2.7 NE 32 39 17 21 1010.6 1010.6 0.0
26/03:30pm 25.5 24.5 21.2 77 2.8 NE 28 33 15 18 1010.6 1010.6 0.0
26/03:00pm 25.6 25.0 21.3 77 2.8 NE 26 33 14 18 1011.0 1011.0 0.0
26/02:30pm 25.3 24.0 21.4 79 2.6 NE 30 33 16 18 1011.2 1011.2 0.0
26/02:00pm 25.5 25.0 21.4 78 2.7 NE 26 32 14 17 1011.2 1011.2 0.0
26/01:30pm 25.6 24.7 21.5 78 2.7 NE 28 35 15 19 1011.6 1011.6 0.0
26/01:00pm 25.2 24.2 21.3 79 2.6 NE 28 33 15 18 1011.6 1011.6 0.0
26/12:30pm 25.2 25.1 21.5 80 2.5 NE 24 32 13 17 1011.8 1011.8 0.0
26/12:00pm 25.6 25.0 21.3 77 2.8 NE 26 32 14 17 1011.9 1011.9 0.0
26/11:30am 25.6 24.5 21.7 79 2.6 NE 30 35 16 19 1012.1 1012.1 0.0
26/11:00am 25.0 23.4 20.7 77 2.8 NE 30 35 16 19 1012.1 1012.1 0.0
26/10:30am 24.9 22.8 20.6 77 2.8 NE 32 37 17 20 1012.2 1012.2 0.0
26/10:00am 25.2 23.8 21.1 78 2.7 NE 30 35 16 19 1012.4 1012.4 0.0
26/09:30am 24.7 22.8 20.2 76 2.9 NE 30 35 16 19 1012.7 1012.7 0.0
26/09:00am 25.0 23.5 20.3 75 3.1 NE 28 35 15 19 1012.8 1012.8 0.0
26/08:30am 24.0 22.4 19.3 75 3.0 NE 26 33 14 18 1013.0 1013.0 0.0
26/08:00am 24.8 23.0 20.3 76 2.9 NE 30 35 16 19 1012.9 1012.9 0.0
26/07:30am 24.5 22.9 20.0 76 2.9 NE 28 33 15 18 1012.9 1012.9 0.0
26/07:00am 24.0 23.0 19.7 77 2.8 NE 24 30 13 16 1012.9 1012.9 0.0
26/06:30am 23.4 21.8 19.1 77 2.7 NE 26 32 14 17 1012.6 1012.6 0.0
26/06:00am 22.9 21.2 19.9 83 1.9 NE 28 33 15 18 1012.2 1012.2 0.0
26/05:30am 22.8 21.0 19.6 82 2.0 NE 28 35 15 19 1012.0 1012.0 0.0
26/05:00am 23.0 21.5 19.4 80 2.3 NE 26 32 14 17 1011.8 1011.8 0.0
26/04:30am 23.0 21.2 19.6 81 2.2 NE 28 35 15 19 1011.8 1011.8 0.0
26/04:00am 22.9 21.1 19.5 81 2.2 NE 28 33 15 18 1011.8 1011.8 0.0
26/03:30am 22.7 20.4 18.5 77 2.6 NE 28 35 15 19 1011.9 1011.9 0.0
26/03:00am 22.7 20.5 19.5 82 2.0 NE 30 35 16 19 1012.1 1012.1 0.0
26/02:30am 22.8 20.7 19.0 79 2.4 NE 28 37 15 20 1012.4 1012.4 0.0

Other formats

Comma delimited format used in spreadsheet applications
http://www.bom.gov.au/fwo/IDN60801/IDN60801.94995.axf

JavaScript Object Notation format (JSON) in row-major order
http://www.bom.gov.au/fwo/IDN60801/IDN60801.94995.json

Data quality

Most of these data are generated automatically and are frequently updated. Quality checks on data are not normally performed. It is possible for incorrect values to appear. Refer to information at About Latest Weather Observations and please check the disclaimer before using these data.